sensor_id;sensor_type;location;lat;lon;timestamp;temperature;humidity
8662;DHT22;29684;47.722;9.388;2023-11-22T00:00:06;6.70;99.90
8662;DHT22;29684;47.722;9.388;2023-11-22T00:02:51;6.90;99.90
8662;DHT22;29684;47.722;9.388;2023-11-22T00:05:35;6.80;99.90
8662;DHT22;29684;47.722;9.388;2023-11-22T00:08:20;6.80;99.90
8662;DHT22;29684;47.722;9.388;2023-11-22T00:11:04;6.70;99.90
8662;DHT22;29684;47.722;9.388;2023-11-22T00:13:49;6.70;99.90
8662;DHT22;29684;47.722;9.388;2023-11-22T00:16:33;6.90;99.90
8662;DHT22;29684;47.722;9.388;2023-11-22T00:19:21;7.10;99.90
8662;DHT22;29684;47.722;9.388;2023-11-22T00:22:07;7.20;99.90
8662;DHT22;29684;47.722;9.388;2023-11-22T00:24:57;7.20;99.90
8662;DHT22;29684;47.722;9.388;2023-11-22T00:27:41;7.20;99.90
8662;DHT22;29684;47.722;9.388;2023-11-22T00:30:26;7.20;99.90
8662;DHT22;29684;47.722;9.388;2023-11-22T00:33:10;7.40;99.90
8662;DHT22;29684;47.722;9.388;2023-11-22T00:35:54;7.40;99.90
8662;DHT22;29684;47.722;9.388;2023-11-22T00:38:40;7.30;99.90
8662;DHT22;29684;47.722;9.388;2023-11-22T00:41:30;7.20;99.90
8662;DHT22;29684;47.722;9.388;2023-11-22T00:44:14;7.20;99.90
8662;DHT22;29684;47.722;9.388;2023-11-22T00:46:58;7.10;99.90
8662;DHT22;29684;47.722;9.388;2023-11-22T00:49:43;7.10;99.90
8662;DHT22;29684;47.722;9.388;2023-11-22T00:52:27;7.10;99.90
8662;DHT22;29684;47.722;9.388;2023-11-22T00:55:11;7.20;99.90
8662;DHT22;29684;47.722;9.388;2023-11-22T00:57:55;7.20;99.90
8662;DHT22;29684;47.722;9.388;2023-11-22T01:00:45;7.20;99.90
8662;DHT22;29684;47.722;9.388;2023-11-22T01:03:29;7.20;99.90
8662;DHT22;29684;47.722;9.388;2023-11-22T01:06:13;7.30;99.90
8662;DHT22;29684;47.722;9.388;2023-11-22T01:08:58;7.20;99.90
8662;DHT22;29684;47.722;9.388;2023-11-22T01:11:43;7.20;99.90
8662;DHT22;29684;47.722;9.388;2023-11-22T01:14:28;7.10;99.90
8662;DHT22;29684;47.722;9.388;2023-11-22T01:17:12;7.00;99.90
8662;DHT22;29684;47.722;9.388;2023-11-22T01:19:56;7.10;99.90
8662;DHT22;29684;47.722;9.388;2023-11-22T01:22:42;7.10;99.90
8662;DHT22;29684;47.722;9.388;2023-11-22T01:25:26;7.10;99.90
8662;DHT22;29684;47.722;9.388;2023-11-22T01:28:12;7.10;99.90
8662;DHT22;29684;47.722;9.388;2023-11-22T01:30:56;7.10;99.90
8662;DHT22;29684;47.722;9.388;2023-11-22T01:33:40;7.20;99.90
8662;DHT22;29684;47.722;9.388;2023-11-22T01:36:27;7.20;99.90
8662;DHT22;29684;47.722;9.388;2023-11-22T01:39:12;7.20;99.90
8662;DHT22;29684;47.722;9.388;2023-11-22T01:41:58;7.20;99.90
8662;DHT22;29684;47.722;9.388;2023-11-22T01:44:42;7.00;99.90
8662;DHT22;29684;47.722;9.388;2023-11-22T01:47:27;6.90;99.90
8662;DHT22;29684;47.722;9.388;2023-11-22T01:50:11;6.80;99.90
8662;DHT22;29684;47.722;9.388;2023-11-22T01:52:56;6.70;99.90
8662;DHT22;29684;47.722;9.388;2023-11-22T01:55:40;6.50;99.90
8662;DHT22;29684;47.722;9.388;2023-11-22T01:58:25;6.40;99.90
8662;DHT22;29684;47.722;9.388;2023-11-22T02:01:09;6.30;99.90
8662;DHT22;29684;47.722;9.388;2023-11-22T02:03:58;6.30;99.90
8662;DHT22;29684;47.722;9.388;2023-11-22T02:06:42;6.30;99.90
8662;DHT22;29684;47.722;9.388;2023-11-22T02:09:26;6.20;99.90
8662;DHT22;29684;47.722;9.388;2023-11-22T02:12:10;6.20;99.90
8662;DHT22;29684;47.722;9.388;2023-11-22T02:14:54;6.20;99.90
8662;DHT22;29684;47.722;9.388;2023-11-22T02:17:38;6.10;99.90
8662;DHT22;29684;47.722;9.388;2023-11-22T02:20:23;6.10;99.90
8662;DHT22;29684;47.722;9.388;2023-11-22T02:23:10;6.00;99.90
8662;DHT22;29684;47.722;9.388;2023-11-22T02:25:55;6.00;99.90
8662;DHT22;29684;47.722;9.388;2023-11-22T02:28:39;6.10;99.90
8662;DHT22;29684;47.722;9.388;2023-11-22T02:31:23;6.10;99.90
8662;DHT22;29684;47.722;9.388;2023-11-22T02:34:08;6.10;99.90
8662;DHT22;29684;47.722;9.388;2023-11-22T02:36:53;6.10;99.90
8662;DHT22;29684;47.722;9.388;2023-11-22T02:42:52;6.10;99.90
8662;DHT22;29684;47.722;9.388;2023-11-22T02:45:44;6.20;99.90
8662;DHT22;29684;47.722;9.388;2023-11-22T02:48:29;6.20;99.90
8662;DHT22;29684;47.722;9.388;2023-11-22T02:51:13;6.10;99.90
8662;DHT22;29684;47.722;9.388;2023-11-22T02:53:57;6.10;99.90
8662;DHT22;29684;47.722;9.388;2023-11-22T02:56:42;6.10;99.90
8662;DHT22;29684;47.722;9.388;2023-11-22T02:59:26;6.10;99.90
8662;DHT22;29684;47.722;9.388;2023-11-22T03:02:10;6.10;99.90
8662;DHT22;29684;47.722;9.388;2023-11-22T03:04:55;6.10;99.90
8662;DHT22;29684;47.722;9.388;2023-11-22T03:07:41;6.10;99.90
8662;DHT22;29684;47.722;9.388;2023-11-22T03:10:25;6.20;99.90
8662;DHT22;29684;47.722;9.388;2023-11-22T03:13:10;6.20;99.90
8662;DHT22;29684;47.722;9.388;2023-11-22T03:15:54;6.20;99.90
8662;DHT22;29684;47.722;9.388;2023-11-22T03:18:39;6.10;99.90
8662;DHT22;29684;47.722;9.388;2023-11-22T03:21:23;6.20;99.90
8662;DHT22;29684;47.722;9.388;2023-11-22T03:24:10;6.20;99.90
8662;DHT22;29684;47.722;9.388;2023-11-22T03:26:54;6.20;99.90
8662;DHT22;29684;47.722;9.388;2023-11-22T03:29:40;6.10;99.90
8662;DHT22;29684;47.722;9.388;2023-11-22T03:32:24;6.10;99.90
8662;DHT22;29684;47.722;9.388;2023-11-22T03:35:09;6.20;99.90
8662;DHT22;29684;47.722;9.388;2023-11-22T03:37:53;6.10;99.90
8662;DHT22;29684;47.722;9.388;2023-11-22T03:40:37;6.10;99.90
8662;DHT22;29684;47.722;9.388;2023-11-22T03:43:22;6.20;99.90
8662;DHT22;29684;47.722;9.388;2023-11-22T03:46:06;6.10;99.90
8662;DHT22;29684;47.722;9.388;2023-11-22T03:48:50;6.20;99.90
8662;DHT22;29684;47.722;9.388;2023-11-22T03:51:35;6.20;99.90
8662;DHT22;29684;47.722;9.388;2023-11-22T03:54:20;6.20;99.90
8662;DHT22;29684;47.722;9.388;2023-11-22T03:57:04;6.30;99.90
8662;DHT22;29684;47.722;9.388;2023-11-22T03:59:48;6.30;99.90
8662;DHT22;29684;47.722;9.388;2023-11-22T04:02:33;6.20;99.90
8662;DHT22;29684;47.722;9.388;2023-11-22T04:05:17;6.30;99.90
8662;DHT22;29684;47.722;9.388;2023-11-22T04:08:01;6.30;99.90
8662;DHT22;29684;47.722;9.388;2023-11-22T04:10:45;6.60;99.90
8662;DHT22;29684;47.722;9.388;2023-11-22T04:13:30;6.60;99.90
8662;DHT22;29684;47.722;9.388;2023-11-22T04:16:14;6.70;99.90
8662;DHT22;29684;47.722;9.388;2023-11-22T04:18:58;6.80;99.90
8662;DHT22;29684;47.722;9.388;2023-11-22T04:21:43;7.00;99.90
8662;DHT22;29684;47.722;9.388;2023-11-22T04:24:27;6.90;99.90
8662;DHT22;29684;47.722;9.388;2023-11-22T04:27:11;6.80;99.90
8662;DHT22;29684;47.722;9.388;2023-11-22T04:29:55;6.70;99.90
8662;DHT22;29684;47.722;9.388;2023-11-22T04:32:40;6.80;99.90
8662;DHT22;29684;47.722;9.388;2023-11-22T04:35:26;6.70;99.90
8662;DHT22;29684;47.722;9.388;2023-11-22T04:38:10;6.60;99.90
8662;DHT22;29684;47.722;9.388;2023-11-22T04:40:54;6.60;99.90
8662;DHT22;29684;47.722;9.388;2023-11-22T04:43:38;6.70;99.90
8662;DHT22;29684;47.722;9.388;2023-11-22T04:46:22;6.80;99.90
8662;DHT22;29684;47.722;9.388;2023-11-22T04:49:06;6.90;99.90
8662;DHT22;29684;47.722;9.388;2023-11-22T04:51:51;6.90;99.90
8662;DHT22;29684;47.722;9.388;2023-11-22T04:54:35;7.00;99.90
8662;DHT22;29684;47.722;9.388;2023-11-22T04:57:19;6.70;99.90
8662;DHT22;29684;47.722;9.388;2023-11-22T05:00:04;6.70;99.90
8662;DHT22;29684;47.722;9.388;2023-11-22T05:02:51;6.70;99.90
8662;DHT22;29684;47.722;9.388;2023-11-22T05:05:35;6.70;99.90
8662;DHT22;29684;47.722;9.388;2023-11-22T05:08:19;6.80;99.90
8662;DHT22;29684;47.722;9.388;2023-11-22T05:11:03;6.60;99.90
8662;DHT22;29684;47.722;9.388;2023-11-22T05:13:48;6.60;99.90
8662;DHT22;29684;47.722;9.388;2023-11-22T05:16:34;6.60;99.90
8662;DHT22;29684;47.722;9.388;2023-11-22T05:19:19;6.80;99.90
8662;DHT22;29684;47.722;9.388;2023-11-22T05:22:03;6.60;99.90
8662;DHT22;29684;47.722;9.388;2023-11-22T05:24:49;6.70;99.90
8662;DHT22;29684;47.722;9.388;2023-11-22T05:27:33;6.60;99.90
8662;DHT22;29684;47.722;9.388;2023-11-22T05:30:18;6.70;99.90
8662;DHT22;29684;47.722;9.388;2023-11-22T05:33:02;6.60;99.90
8662;DHT22;29684;47.722;9.388;2023-11-22T05:35:46;6.50;99.90
8662;DHT22;29684;47.722;9.388;2023-11-22T05:38:30;6.30;99.90
8662;DHT22;29684;47.722;9.388;2023-11-22T05:41:14;6.30;99.90
8662;DHT22;29684;47.722;9.388;2023-11-22T05:43:59;6.30;99.90
8662;DHT22;29684;47.722;9.388;2023-11-22T05:46:43;6.20;99.90
8662;DHT22;29684;47.722;9.388;2023-11-22T05:49:27;6.30;99.90
8662;DHT22;29684;47.722;9.388;2023-11-22T05:52:12;6.10;99.90
8662;DHT22;29684;47.722;9.388;2023-11-22T05:54:56;6.00;99.90
8662;DHT22;29684;47.722;9.388;2023-11-22T05:57:41;6.00;99.90
8662;DHT22;29684;47.722;9.388;2023-11-22T06:00:25;6.00;99.90
8662;DHT22;29684;47.722;9.388;2023-11-22T06:03:11;5.90;99.90
8662;DHT22;29684;47.722;9.388;2023-11-22T06:05:55;5.80;99.90
8662;DHT22;29684;47.722;9.388;2023-11-22T06:08:41;4.70;99.90
8662;DHT22;29684;47.722;9.388;2023-11-22T06:11:26;6.00;99.90
8662;DHT22;29684;47.722;9.388;2023-11-22T06:14:10;6.00;99.90
8662;DHT22;29684;47.722;9.388;2023-11-22T06:16:54;5.70;99.90
8662;DHT22;29684;47.722;9.388;2023-11-22T06:19:38;5.70;99.90
8662;DHT22;29684;47.722;9.388;2023-11-22T06:22:22;5.80;99.90
8662;DHT22;29684;47.722;9.388;2023-11-22T06:25:08;5.70;99.90
8662;DHT22;29684;47.722;9.388;2023-11-22T06:27:53;5.70;99.90
8662;DHT22;29684;47.722;9.388;2023-11-22T06:30:37;5.50;99.90
8662;DHT22;29684;47.722;9.388;2023-11-22T06:33:22;5.50;99.90
8662;DHT22;29684;47.722;9.388;2023-11-22T06:36:07;5.60;99.90
8662;DHT22;29684;47.722;9.388;2023-11-22T06:38:53;5.40;99.90
8662;DHT22;29684;47.722;9.388;2023-11-22T06:41:38;5.30;99.90
8662;DHT22;29684;47.722;9.388;2023-11-22T06:44:22;5.40;99.90
8662;DHT22;29684;47.722;9.388;2023-11-22T06:47:07;5.50;99.90
8662;DHT22;29684;47.722;9.388;2023-11-22T06:49:51;5.30;99.90
8662;DHT22;29684;47.722;9.388;2023-11-22T06:52:36;5.40;99.90
8662;DHT22;29684;47.722;9.388;2023-11-22T06:55:20;5.30;99.90
8662;DHT22;29684;47.722;9.388;2023-11-22T06:58:05;5.40;99.90
8662;DHT22;29684;47.722;9.388;2023-11-22T07:00:51;5.10;99.90
8662;DHT22;29684;47.722;9.388;2023-11-22T07:03:36;5.20;99.90
8662;DHT22;29684;47.722;9.388;2023-11-22T07:06:21;5.20;99.90
8662;DHT22;29684;47.722;9.388;2023-11-22T07:09:10;5.20;99.90
8662;DHT22;29684;47.722;9.388;2023-11-22T07:11:54;5.20;99.90
8662;DHT22;29684;47.722;9.388;2023-11-22T07:14:41;5.00;99.90
8662;DHT22;29684;47.722;9.388;2023-11-22T07:17:27;4.90;99.90
8662;DHT22;29684;47.722;9.388;2023-11-22T07:20:12;5.10;99.90
8662;DHT22;29684;47.722;9.388;2023-11-22T07:23:00;5.20;99.90
8662;DHT22;29684;47.722;9.388;2023-11-22T07:25:45;5.10;99.90
8662;DHT22;29684;47.722;9.388;2023-11-22T07:28:30;5.20;99.90
8662;DHT22;29684;47.722;9.388;2023-11-22T07:31:15;5.40;99.90
8662;DHT22;29684;47.722;9.388;2023-11-22T07:34:00;5.20;99.90
8662;DHT22;29684;47.722;9.388;2023-11-22T07:36:45;5.00;99.90
8662;DHT22;29684;47.722;9.388;2023-11-22T07:39:31;5.00;99.90
8662;DHT22;29684;47.722;9.388;2023-11-22T07:42:15;5.00;99.90
8662;DHT22;29684;47.722;9.388;2023-11-22T07:44:59;5.10;99.90
8662;DHT22;29684;47.722;9.388;2023-11-22T07:47:43;5.00;99.90
8662;DHT22;29684;47.722;9.388;2023-11-22T07:50:28;5.10;99.90
8662;DHT22;29684;47.722;9.388;2023-11-22T07:53:13;5.00;99.90
8662;DHT22;29684;47.722;9.388;2023-11-22T07:55:58;5.00;99.90
8662;DHT22;29684;47.722;9.388;2023-11-22T07:58:42;5.10;99.90
8662;DHT22;29684;47.722;9.388;2023-11-22T08:01:26;5.30;99.90
8662;DHT22;29684;47.722;9.388;2023-11-22T08:04:14;5.20;99.90
8662;DHT22;29684;47.722;9.388;2023-11-22T08:06:58;5.30;99.90
8662;DHT22;29684;47.722;9.388;2023-11-22T08:09:43;5.40;99.90
8662;DHT22;29684;47.722;9.388;2023-11-22T08:12:28;5.40;99.90
8662;DHT22;29684;47.722;9.388;2023-11-22T08:15:14;5.60;99.90
8662;DHT22;29684;47.722;9.388;2023-11-22T08:17:58;5.30;99.90
8662;DHT22;29684;47.722;9.388;2023-11-22T08:20:44;5.20;99.90
8662;DHT22;29684;47.722;9.388;2023-11-22T08:23:28;5.20;99.90
8662;DHT22;29684;47.722;9.388;2023-11-22T08:26:15;5.30;99.90
8662;DHT22;29684;47.722;9.388;2023-11-22T08:28:59;5.10;99.90
8662;DHT22;29684;47.722;9.388;2023-11-22T08:31:43;4.90;99.90
8662;DHT22;29684;47.722;9.388;2023-11-22T08:34:27;5.00;99.90
8662;DHT22;29684;47.722;9.388;2023-11-22T08:37:11;5.10;99.90
8662;DHT22;29684;47.722;9.388;2023-11-22T08:39:55;5.00;99.90
8662;DHT22;29684;47.722;9.388;2023-11-22T08:42:40;5.00;99.90
8662;DHT22;29684;47.722;9.388;2023-11-22T08:45:25;4.80;99.90
8662;DHT22;29684;47.722;9.388;2023-11-22T08:48:13;4.70;99.90
8662;DHT22;29684;47.722;9.388;2023-11-22T08:50:59;4.80;99.90
8662;DHT22;29684;47.722;9.388;2023-11-22T08:53:44;4.60;99.90
8662;DHT22;29684;47.722;9.388;2023-11-22T08:56:28;4.80;99.90
8662;DHT22;29684;47.722;9.388;2023-11-22T08:59:13;4.90;99.90
8662;DHT22;29684;47.722;9.388;2023-11-22T09:01:57;5.00;99.90
8662;DHT22;29684;47.722;9.388;2023-11-22T09:04:42;4.80;99.90
8662;DHT22;29684;47.722;9.388;2023-11-22T09:07:26;4.70;99.90
8662;DHT22;29684;47.722;9.388;2023-11-22T09:10:12;4.90;99.90
8662;DHT22;29684;47.722;9.388;2023-11-22T09:12:59;4.80;99.90
8662;DHT22;29684;47.722;9.388;2023-11-22T09:15:43;4.80;99.90
8662;DHT22;29684;47.722;9.388;2023-11-22T09:18:28;4.80;99.90
8662;DHT22;29684;47.722;9.388;2023-11-22T09:21:13;4.70;99.90
8662;DHT22;29684;47.722;9.388;2023-11-22T09:23:57;4.80;99.90
8662;DHT22;29684;47.722;9.388;2023-11-22T09:26:41;4.80;99.90
8662;DHT22;29684;47.722;9.388;2023-11-22T09:29:26;4.80;99.90
8662;DHT22;29684;47.722;9.388;2023-11-22T09:32:10;4.90;99.90
8662;DHT22;29684;47.722;9.388;2023-11-22T09:34:54;4.90;99.90
8662;DHT22;29684;47.722;9.388;2023-11-22T09:37:42;4.90;99.90
8662;DHT22;29684;47.722;9.388;2023-11-22T09:40:27;4.80;99.90
8662;DHT22;29684;47.722;9.388;2023-11-22T09:43:13;5.00;99.90
8662;DHT22;29684;47.722;9.388;2023-11-22T09:46:01;5.00;99.90
8662;DHT22;29684;47.722;9.388;2023-11-22T09:48:50;5.10;99.90
8662;DHT22;29684;47.722;9.388;2023-11-22T09:51:37;4.80;99.90
8662;DHT22;29684;47.722;9.388;2023-11-22T09:54:24;4.70;99.90
8662;DHT22;29684;47.722;9.388;2023-11-22T09:57:13;4.60;99.90
8662;DHT22;29684;47.722;9.388;2023-11-22T09:59:59;4.40;99.90
8662;DHT22;29684;47.722;9.388;2023-11-22T10:02:45;4.30;99.90
8662;DHT22;29684;47.722;9.388;2023-11-22T10:05:29;4.30;99.90
8662;DHT22;29684;47.722;9.388;2023-11-22T10:08:13;4.30;99.90
8662;DHT22;29684;47.722;9.388;2023-11-22T10:10:59;4.20;99.90
8662;DHT22;29684;47.722;9.388;2023-11-22T10:13:47;4.30;99.90
8662;DHT22;29684;47.722;9.388;2023-11-22T10:16:31;4.40;99.90
8662;DHT22;29684;47.722;9.388;2023-11-22T10:19:17;4.30;99.90
8662;DHT22;29684;47.722;9.388;2023-11-22T10:22:07;4.30;99.90
8662;DHT22;29684;47.722;9.388;2023-11-22T10:24:51;4.40;99.90
8662;DHT22;29684;47.722;9.388;2023-11-22T10:27:39;4.50;99.90
8662;DHT22;29684;47.722;9.388;2023-11-22T10:30:25;4.60;99.90
8662;DHT22;29684;47.722;9.388;2023-11-22T10:33:15;4.70;99.90
8662;DHT22;29684;47.722;9.388;2023-11-22T10:36:01;4.90;99.90
8662;DHT22;29684;47.722;9.388;2023-11-22T10:38:49;5.20;99.90
8662;DHT22;29684;47.722;9.388;2023-11-22T10:41:37;5.20;99.90
8662;DHT22;29684;47.722;9.388;2023-11-22T10:44:23;5.00;99.90
8662;DHT22;29684;47.722;9.388;2023-11-22T10:47:08;5.20;99.90
8662;DHT22;29684;47.722;9.388;2023-11-22T10:49:52;5.30;99.90
8662;DHT22;29684;47.722;9.388;2023-11-22T10:52:41;5.30;99.90
8662;DHT22;29684;47.722;9.388;2023-11-22T10:55:27;5.40;99.90
8662;DHT22;29684;47.722;9.388;2023-11-22T10:58:14;5.50;99.90
8662;DHT22;29684;47.722;9.388;2023-11-22T11:00:59;5.60;99.90
8662;DHT22;29684;47.722;9.388;2023-11-22T11:04:03;5.50;99.90
8662;DHT22;29684;47.722;9.388;2023-11-22T11:06:54;5.00;99.90
8662;DHT22;29684;47.722;9.388;2023-11-22T11:09:39;5.20;99.90
8662;DHT22;29684;47.722;9.388;2023-11-22T11:12:24;5.20;99.90
8662;DHT22;29684;47.722;9.388;2023-11-22T11:15:09;5.00;99.90
8662;DHT22;29684;47.722;9.388;2023-11-22T11:17:53;5.20;99.90
8662;DHT22;29684;47.722;9.388;2023-11-22T11:20:52;4.90;99.90
8662;DHT22;29684;47.722;9.388;2023-11-22T11:23:39;5.20;99.90
8662;DHT22;29684;47.722;9.388;2023-11-22T11:26:25;5.40;99.90
8662;DHT22;29684;47.722;9.388;2023-11-22T11:29:32;5.40;99.90
8662;DHT22;29684;47.722;9.388;2023-11-22T11:32:33;5.20;99.90
8662;DHT22;29684;47.722;9.388;2023-11-22T11:35:17;5.10;99.90
8662;DHT22;29684;47.722;9.388;2023-11-22T11:38:02;5.10;99.90
8662;DHT22;29684;47.722;9.388;2023-11-22T11:40:49;5.30;99.90
8662;DHT22;29684;47.722;9.388;2023-11-22T11:43:48;7.70;99.90
8662;DHT22;29684;47.722;9.388;2023-11-22T11:46:33;5.50;99.90
8662;DHT22;29684;47.722;9.388;2023-11-22T11:49:17;5.50;99.90
8662;DHT22;29684;47.722;9.388;2023-11-22T11:52:02;7.60;99.90
8662;DHT22;29684;47.722;9.388;2023-11-22T11:54:47;5.30;99.90
8662;DHT22;29684;47.722;9.388;2023-11-22T11:57:31;5.30;99.90
8662;DHT22;29684;47.722;9.388;2023-11-22T12:00:16;5.30;99.90
8662;DHT22;29684;47.722;9.388;2023-11-22T12:03:01;5.40;99.90
8662;DHT22;29684;47.722;9.388;2023-11-22T12:05:45;5.40;99.90
8662;DHT22;29684;47.722;9.388;2023-11-22T12:08:29;5.30;99.90
8662;DHT22;29684;47.722;9.388;2023-11-22T12:11:18;5.30;99.90
8662;DHT22;29684;47.722;9.388;2023-11-22T12:14:02;5.60;99.90
8662;DHT22;29684;47.722;9.388;2023-11-22T12:16:49;5.50;99.90
8662;DHT22;29684;47.722;9.388;2023-11-22T12:19:34;5.40;99.90
8662;DHT22;29684;47.722;9.388;2023-11-22T12:22:19;5.20;99.90
8662;DHT22;29684;47.722;9.388;2023-11-22T12:25:04;5.30;99.90
8662;DHT22;29684;47.722;9.388;2023-11-22T12:27:49;5.30;99.90
8662;DHT22;29684;47.722;9.388;2023-11-22T12:30:33;5.40;99.90
8662;DHT22;29684;47.722;9.388;2023-11-22T12:33:21;5.50;99.90
8662;DHT22;29684;47.722;9.388;2023-11-22T12:36:07;5.50;99.90
8662;DHT22;29684;47.722;9.388;2023-11-22T12:38:55;5.40;99.90
8662;DHT22;29684;47.722;9.388;2023-11-22T12:41:49;5.40;99.90
8662;DHT22;29684;47.722;9.388;2023-11-22T12:44:51;5.30;99.90
8662;DHT22;29684;47.722;9.388;2023-11-22T12:47:36;5.00;99.90
8662;DHT22;29684;47.722;9.388;2023-11-22T12:50:36;5.10;99.90
8662;DHT22;29684;47.722;9.388;2023-11-22T12:53:24;5.10;99.90
8662;DHT22;29684;47.722;9.388;2023-11-22T12:56:09;5.30;99.90
8662;DHT22;29684;47.722;9.388;2023-11-22T12:58:55;5.10;99.90
8662;DHT22;29684;47.722;9.388;2023-11-22T13:01:40;5.10;99.90
8662;DHT22;29684;47.722;9.388;2023-11-22T13:04:24;5.00;99.90
8662;DHT22;29684;47.722;9.388;2023-11-22T13:07:08;4.90;99.90
8662;DHT22;29684;47.722;9.388;2023-11-22T13:09:52;4.90;99.90
8662;DHT22;29684;47.722;9.388;2023-11-22T13:12:36;4.70;99.90
8662;DHT22;29684;47.722;9.388;2023-11-22T13:15:21;4.70;99.90
8662;DHT22;29684;47.722;9.388;2023-11-22T13:18:10;4.70;99.90
8662;DHT22;29684;47.722;9.388;2023-11-22T13:20:57;4.70;99.90
8662;DHT22;29684;47.722;9.388;2023-11-22T13:23:45;4.30;99.90
8662;DHT22;29684;47.722;9.388;2023-11-22T13:26:29;4.40;99.90
8662;DHT22;29684;47.722;9.388;2023-11-22T13:29:14;4.70;99.90
8662;DHT22;29684;47.722;9.388;2023-11-22T13:31:58;4.50;99.90
8662;DHT22;29684;47.722;9.388;2023-11-22T13:34:43;4.70;99.90
8662;DHT22;29684;47.722;9.388;2023-11-22T13:37:27;4.60;99.90
8662;DHT22;29684;47.722;9.388;2023-11-22T13:40:17;4.50;99.90
8662;DHT22;29684;47.722;9.388;2023-11-22T13:43:05;4.50;99.90
8662;DHT22;29684;47.722;9.388;2023-11-22T13:45:50;4.50;99.90
8662;DHT22;29684;47.722;9.388;2023-11-22T13:48:34;4.70;99.90
8662;DHT22;29684;47.722;9.388;2023-11-22T13:51:18;4.30;99.90
8662;DHT22;29684;47.722;9.388;2023-11-22T13:54:03;4.40;99.90
8662;DHT22;29684;47.722;9.388;2023-11-22T13:56:47;4.60;99.90
8662;DHT22;29684;47.722;9.388;2023-11-22T13:59:34;4.50;99.90
8662;DHT22;29684;47.722;9.388;2023-11-22T14:02:19;4.60;99.90
8662;DHT22;29684;47.722;9.388;2023-11-22T14:05:04;4.60;99.90
8662;DHT22;29684;47.722;9.388;2023-11-22T14:07:56;4.40;99.90
8662;DHT22;29684;47.722;9.388;2023-11-22T14:10:43;4.60;99.90
8662;DHT22;29684;47.722;9.388;2023-11-22T14:13:29;4.50;99.90
8662;DHT22;29684;47.722;9.388;2023-11-22T14:16:13;4.90;99.90
8662;DHT22;29684;47.722;9.388;2023-11-22T14:18:59;4.70;99.90
8662;DHT22;29684;47.722;9.388;2023-11-22T14:21:43;4.70;99.90
8662;DHT22;29684;47.722;9.388;2023-11-22T14:24:27;4.60;99.90
8662;DHT22;29684;47.722;9.388;2023-11-22T14:27:14;2.50;99.90
8662;DHT22;29684;47.722;9.388;2023-11-22T14:29:58;4.70;99.90
8662;DHT22;29684;47.722;9.388;2023-11-22T14:32:43;4.30;99.90
8662;DHT22;29684;47.722;9.388;2023-11-22T14:35:27;4.30;99.90
8662;DHT22;29684;47.722;9.388;2023-11-22T14:38:12;4.10;99.90
8662;DHT22;29684;47.722;9.388;2023-11-22T14:40:57;4.30;99.90
8662;DHT22;29684;47.722;9.388;2023-11-22T14:43:41;4.30;99.90
8662;DHT22;29684;47.722;9.388;2023-11-22T14:46:26;4.10;99.90
8662;DHT22;29684;47.722;9.388;2023-11-22T14:49:10;3.90;99.90
8662;DHT22;29684;47.722;9.388;2023-11-22T14:51:54;3.80;99.90
8662;DHT22;29684;47.722;9.388;2023-11-22T14:54:39;3.80;99.90
8662;DHT22;29684;47.722;9.388;2023-11-22T14:57:23;3.90;99.90
8662;DHT22;29684;47.722;9.388;2023-11-22T15:00:07;3.80;99.90
8662;DHT22;29684;47.722;9.388;2023-11-22T15:02:54;3.80;99.90
8662;DHT22;29684;47.722;9.388;2023-11-22T15:05:43;3.70;99.90
8662;DHT22;29684;47.722;9.388;2023-11-22T15:08:27;3.90;99.90
8662;DHT22;29684;47.722;9.388;2023-11-22T15:11:12;3.70;99.90
8662;DHT22;29684;47.722;9.388;2023-11-22T15:13:57;3.60;99.90
8662;DHT22;29684;47.722;9.388;2023-11-22T15:16:41;3.60;99.90
8662;DHT22;29684;47.722;9.388;2023-11-22T15:19:25;3.60;99.90
8662;DHT22;29684;47.722;9.388;2023-11-22T15:22:11;3.70;99.90
8662;DHT22;29684;47.722;9.388;2023-11-22T15:24:55;4.90;99.90
8662;DHT22;29684;47.722;9.388;2023-11-22T15:27:40;3.60;99.90
8662;DHT22;29684;47.722;9.388;2023-11-22T15:30:27;3.40;99.90
8662;DHT22;29684;47.722;9.388;2023-11-22T15:33:11;3.20;99.90
8662;DHT22;29684;47.722;9.388;2023-11-22T15:35:55;3.30;99.90
8662;DHT22;29684;47.722;9.388;2023-11-22T15:38:39;0.20;99.90
8662;DHT22;29684;47.722;9.388;2023-11-22T15:41:23;3.30;99.90
8662;DHT22;29684;47.722;9.388;2023-11-22T15:44:07;3.30;99.90
8662;DHT22;29684;47.722;9.388;2023-11-22T15:46:51;3.40;99.90
8662;DHT22;29684;47.722;9.388;2023-11-22T15:49:35;3.40;99.90
8662;DHT22;29684;47.722;9.388;2023-11-22T15:52:27;3.30;99.90
8662;DHT22;29684;47.722;9.388;2023-11-22T15:55:12;3.50;99.90
8662;DHT22;29684;47.722;9.388;2023-11-22T15:57:57;3.40;99.90
8662;DHT22;29684;47.722;9.388;2023-11-22T16:00:42;3.40;99.90
8662;DHT22;29684;47.722;9.388;2023-11-22T16:03:26;3.40;99.90
8662;DHT22;29684;47.722;9.388;2023-11-22T16:06:12;3.40;99.90
8662;DHT22;29684;47.722;9.388;2023-11-22T16:08:57;3.30;99.90
8662;DHT22;29684;47.722;9.388;2023-11-22T16:11:41;3.30;99.90
8662;DHT22;29684;47.722;9.388;2023-11-22T16:14:25;3.20;99.90
8662;DHT22;29684;47.722;9.388;2023-11-22T16:17:10;6.10;99.90
8662;DHT22;29684;47.722;9.388;2023-11-22T16:19:55;3.20;99.90
8662;DHT22;29684;47.722;9.388;2023-11-22T16:22:42;3.30;99.90
8662;DHT22;29684;47.722;9.388;2023-11-22T16:25:29;3.30;99.90
8662;DHT22;29684;47.722;9.388;2023-11-22T16:28:16;3.40;99.90
8662;DHT22;29684;47.722;9.388;2023-11-22T16:31:01;3.30;99.90
8662;DHT22;29684;47.722;9.388;2023-11-22T16:33:48;3.20;99.90
8662;DHT22;29684;47.722;9.388;2023-11-22T16:36:32;3.20;99.90
8662;DHT22;29684;47.722;9.388;2023-11-22T16:39:16;3.00;99.90
8662;DHT22;29684;47.722;9.388;2023-11-22T16:42:04;3.10;99.90
8662;DHT22;29684;47.722;9.388;2023-11-22T16:44:51;2.90;99.90
8662;DHT22;29684;47.722;9.388;2023-11-22T16:47:35;2.90;99.90
8662;DHT22;29684;47.722;9.388;2023-11-22T16:50:21;2.90;99.90
8662;DHT22;29684;47.722;9.388;2023-11-22T16:53:05;3.80;99.90
8662;DHT22;29684;47.722;9.388;2023-11-22T16:55:49;3.00;99.90
8662;DHT22;29684;47.722;9.388;2023-11-22T16:58:33;3.00;99.90
8662;DHT22;29684;47.722;9.388;2023-11-22T17:01:17;2.90;99.90
8662;DHT22;29684;47.722;9.388;2023-11-22T17:04:01;2.90;99.90
8662;DHT22;29684;47.722;9.388;2023-11-22T17:06:49;2.90;99.90
8662;DHT22;29684;47.722;9.388;2023-11-22T17:09:33;2.90;99.90
8662;DHT22;29684;47.722;9.388;2023-11-22T17:12:18;2.80;99.90
8662;DHT22;29684;47.722;9.388;2023-11-22T17:15:03;2.80;99.90
8662;DHT22;29684;47.722;9.388;2023-11-22T17:17:50;2.80;99.90
8662;DHT22;29684;47.722;9.388;2023-11-22T17:20:34;2.80;99.90
8662;DHT22;29684;47.722;9.388;2023-11-22T17:23:18;3.20;99.90
8662;DHT22;29684;47.722;9.388;2023-11-22T17:26:02;3.30;99.90
8662;DHT22;29684;47.722;9.388;2023-11-22T17:28:47;3.40;99.90
8662;DHT22;29684;47.722;9.388;2023-11-22T17:31:32;3.50;99.90
8662;DHT22;29684;47.722;9.388;2023-11-22T17:34:16;3.20;99.90
8662;DHT22;29684;47.722;9.388;2023-11-22T17:37:01;3.00;99.90
8662;DHT22;29684;47.722;9.388;2023-11-22T17:39:48;2.90;99.90
8662;DHT22;29684;47.722;9.388;2023-11-22T17:42:34;2.80;99.90
8662;DHT22;29684;47.722;9.388;2023-11-22T17:45:18;2.70;99.90
8662;DHT22;29684;47.722;9.388;2023-11-22T17:48:02;2.70;99.90
8662;DHT22;29684;47.722;9.388;2023-11-22T17:50:47;2.80;99.90
8662;DHT22;29684;47.722;9.388;2023-11-22T17:53:31;2.80;99.90
8662;DHT22;29684;47.722;9.388;2023-11-22T17:56:15;2.90;99.90
8662;DHT22;29684;47.722;9.388;2023-11-22T17:59:01;2.90;99.90
8662;DHT22;29684;47.722;9.388;2023-11-22T18:01:47;2.80;99.90